Time,TemperatureF,DewpointF,PressureIn,WindDirection,WindDirectionDegrees,WindSpeedMPH,WindSpeedGustMPH,Humidity,HourlyPrecipIn,Conditions,Clouds,dailyrainin,SoftwareType,DateUTC
2013-06-18 00:00:00,-999.0,-99.9,-100.00,North,-999,6.0,13.0,36,-99.99,,,-99.99,,2013-06-18 06:00:00,
2013-06-18 00:02:00,82.0,-99.9,-100.00,North,-999,-999.0,-999.0,-999,-99.99,,,-99.99,,2013-06-18 06:02:00,
2013-06-18 00:33:00,-999.0,-99.9,-100.00,North,-999,6.0,13.0,36,-99.99,,,-99.99,,2013-06-18 06:33:00,
2013-06-18 00:43:00,-999.0,-99.9,-100.00,North,-999,6.0,13.0,36,-99.99,,,-99.99,,2013-06-18 06:43:00,
2013-06-18 00:53:00,-999.0,-99.9,-100.00,North,-999,6.0,13.0,36,-99.99,,,-99.99,,2013-06-18 06:53:00,
2013-06-18 01:00:00,78.0,-99.9,-100.00,North,-999,7.0,13.0,40,-99.99,,,-99.99,,2013-06-18 07:00:00,
2013-06-18 01:33:00,78.0,-99.9,-100.00,North,-999,7.0,13.0,40,-99.99,,,-99.99,,2013-06-18 07:33:00,
2013-06-18 01:43:00,78.0,-99.9,-100.00,North,-999,7.0,13.0,40,-99.99,,,-99.99,,2013-06-18 07:43:00,
2013-06-18 01:53:00,78.0,-99.9,-100.00,North,-999,7.0,13.0,40,-99.99,,,-99.99,,2013-06-18 07:53:00,
2013-06-18 02:33:00,73.0,-99.9,-100.00,North,-999,-999.0,-999.0,-999,-99.99,,,-99.99,,2013-06-18 08:33:00,
2013-06-18 02:43:00,73.0,-99.9,-100.00,North,-999,-999.0,-999.0,-999,-99.99,,,-99.99,,2013-06-18 08:43:00,
2013-06-18 02:52:00,73.0,-99.9,-100.00,North,-999,-999.0,-999.0,-999,-99.99,,,-99.99,,2013-06-18 08:52:00,
2013-06-18 03:00:00,72.0,-99.9,-100.00,North,-999,6.0,12.0,48,-99.99,,,-99.99,,2013-06-18 09:00:00,
2013-06-18 03:02:00,73.0,-99.9,-100.00,North,-999,-999.0,-999.0,-999,-99.99,,,-99.99,,2013-06-18 09:02:00,
2013-06-18 03:22:00,-999.0,-99.9,-100.00,North,-999,6.0,12.0,48,-99.99,,,-99.99,,2013-06-18 09:22:00,
2013-06-18 03:34:00,72.0,-99.9,-100.00,North,-999,6.0,12.0,48,-99.99,,,-99.99,,2013-06-18 09:34:00,
2013-06-18 03:43:00,72.0,-99.9,-100.00,North,-999,6.0,12.0,48,-99.99,,,-99.99,,2013-06-18 09:43:00,
2013-06-18 03:53:00,72.0,-99.9,-100.00,North,-999,6.0,12.0,48,-99.99,,,-99.99,,2013-06-18 09:53:00,
2013-06-18 04:00:00,69.0,-99.9,-100.00,North,-999,3.0,6.0,51,-99.99,,,-99.99,,2013-06-18 10:00:00,
2013-06-18 04:33:00,69.0,-99.9,-100.00,North,-999,3.0,6.0,51,-99.99,,,-99.99,,2013-06-18 10:33:00,
2013-06-18 04:43:00,69.0,-99.9,-100.00,North,-999,3.0,6.0,51,-99.99,,,-99.99,,2013-06-18 10:43:00,
2013-06-18 04:53:00,69.0,-99.9,-100.00,North,-999,3.0,6.0,51,-99.99,,,-99.99,,2013-06-18 10:53:00,
2013-06-18 05:00:00,68.0,-99.9,-100.00,North,-999,2.0,4.0,54,-99.99,,,-99.99,,2013-06-18 11:00:00,
2013-06-18 05:32:00,68.0,-99.9,-100.00,North,-999,2.0,4.0,54,-99.99,,,-99.99,,2013-06-18 11:32:00,
2013-06-18 05:43:00,68.0,-99.9,-100.00,North,-999,2.0,4.0,54,-99.99,,,-99.99,,2013-06-18 11:43:00,
2013-06-18 05:52:00,68.0,-99.9,-100.00,North,-999,2.0,4.0,54,-99.99,,,-99.99,,2013-06-18 11:52:00,
2013-06-18 06:33:00,67.0,-99.9,-100.00,North,-999,-999.0,-999.0,-999,-99.99,,,-99.99,,2013-06-18 12:33:00,
2013-06-18 06:43:00,67.0,-99.9,-100.00,North,-999,-999.0,-999.0,-999,-99.99,,,-99.99,,2013-06-18 12:43:00,
2013-06-18 06:52:00,67.0,-99.9,-100.00,North,-999,-999.0,-999.0,-999,-99.99,,,-99.99,,2013-06-18 12:52:00,
2013-06-18 07:00:00,71.0,-99.9,-100.00,North,-999,3.0,8.0,53,-99.99,,,-99.99,,2013-06-18 13:00:00,
2013-06-18 07:02:00,67.0,-99.9,-100.00,North,-999,-999.0,-999.0,-999,-99.99,,,-99.99,,2013-06-18 13:02:00,
2013-06-18 07:22:00,-999.0,-99.9,-100.00,North,-999,3.0,8.0,53,-99.99,,,-99.99,,2013-06-18 13:22:00,
2013-06-18 07:34:00,71.0,-99.9,-100.00,North,-999,3.0,8.0,53,-99.99,,,-99.99,,2013-06-18 13:34:00,
2013-06-18 07:43:00,71.0,-99.9,-100.00,North,-999,3.0,8.0,53,-99.99,,,-99.99,,2013-06-18 13:43:00,
2013-06-18 07:53:00,71.0,-99.9,-100.00,North,-999,3.0,8.0,53,-99.99,,,-99.99,,2013-06-18 13:53:00,
2013-06-18 08:00:00,76.0,-99.9,-100.00,North,-999,6.0,10.0,46,-99.99,,,-99.99,,2013-06-18 14:00:00,
2013-06-18 08:22:00,-999.0,-99.9,-100.00,North,-999,6.0,10.0,46,-99.99,,,-99.99,,2013-06-18 14:22:00,
2013-06-18 08:33:00,76.0,-99.9,-100.00,North,-999,6.0,10.0,46,-99.99,,,-99.99,,2013-06-18 14:33:00,
2013-06-18 08:43:00,76.0,-99.9,-100.00,North,-999,6.0,10.0,46,-99.99,,,-99.99,,2013-06-18 14:43:00,
2013-06-18 08:53:00,76.0,-99.9,-100.00,North,-999,6.0,10.0,46,-99.99,,,-99.99,,2013-06-18 14:53:00,
2013-06-18 09:33:00,80.0,-99.9,-100.00,North,-999,-999.0,-999.0,-999,-99.99,,,-99.99,,2013-06-18 15:33:00,
2013-06-18 09:43:00,80.0,-99.9,-100.00,North,-999,-999.0,-999.0,-999,-99.99,,,-99.99,,2013-06-18 15:43:00,
2013-06-18 09:53:00,80.0,-99.9,-100.00,North,-999,-999.0,-999.0,-999,-99.99,,,-99.99,,2013-06-18 15:53:00,
2013-06-18 10:02:00,80.0,-99.9,-100.00,North,-999,-999.0,-999.0,-999,-99.99,,,-99.99,,2013-06-18 16:02:00,
2013-06-18 10:33:00,82.0,-99.9,-100.00,North,-999,-999.0,-999.0,-999,-99.99,,,-99.99,,2013-06-18 16:33:00,
2013-06-18 10:43:00,82.0,-99.9,-100.00,North,-999,-999.0,-999.0,-999,-99.99,,,-99.99,,2013-06-18 16:43:00,
2013-06-18 10:53:00,82.0,-99.9,-100.00,North,-999,-999.0,-999.0,-999,-99.99,,,-99.99,,2013-06-18 16:53:00,
2013-06-18 11:00:00,84.0,-99.9,-100.00,North,-999,5.0,11.0,31,-99.99,,,-99.99,,2013-06-18 17:00:00,
2013-06-18 11:02:00,82.0,-99.9,-100.00,North,-999,-999.0,-999.0,-999,-99.99,,,-99.99,,2013-06-18 17:02:00,
2013-06-18 11:23:00,-999.0,-99.9,-100.00,North,-999,5.0,11.0,31,-99.99,,,-99.99,,2013-06-18 17:23:00,
2013-06-18 11:34:00,84.0,-99.9,-100.00,North,-999,5.0,11.0,31,-99.99,,,-99.99,,2013-06-18 17:34:00,
2013-06-18 11:43:00,84.0,-99.9,-100.00,North,-999,5.0,11.0,31,-99.99,,,-99.99,,2013-06-18 17:43:00,
2013-06-18 11:53:00,84.0,-99.9,-100.00,North,-999,5.0,11.0,31,-99.99,,,-99.99,,2013-06-18 17:53:00,
2013-06-18 12:00:00,86.0,-99.9,-100.00,North,-999,6.0,14.0,29,-99.99,,,-99.99,,2013-06-18 18:00:00,
2013-06-18 12:33:00,86.0,-99.9,-100.00,North,-999,6.0,14.0,29,-99.99,,,-99.99,,2013-06-18 18:33:00,
2013-06-18 12:43:00,86.0,-99.9,-100.00,North,-999,6.0,14.0,29,-99.99,,,-99.99,,2013-06-18 18:43:00,
2013-06-18 12:53:00,86.0,-99.9,-100.00,North,-999,6.0,14.0,29,-99.99,,,-99.99,,2013-06-18 18:53:00,
2013-06-18 13:00:00,-999.0,-99.9,-100.00,North,-999,6.0,13.0,22,-99.99,,,-99.99,,2013-06-18 19:00:00,
2013-06-18 13:34:00,-999.0,-99.9,-100.00,North,-999,6.0,13.0,22,-99.99,,,-99.99,,2013-06-18 19:34:00,
2013-06-18 13:43:00,-999.0,-99.9,-100.00,North,-999,6.0,13.0,22,-99.99,,,-99.99,,2013-06-18 19:43:00,
2013-06-18 13:53:00,-999.0,-99.9,-100.00,North,-999,6.0,13.0,22,-99.99,,,-99.99,,2013-06-18 19:53:00,
2013-06-18 14:00:00,93.0,-99.9,-100.00,North,-999,6.0,13.0,21,-99.99,,,-99.99,,2013-06-18 20:00:00,
2013-06-18 14:33:00,93.0,-99.9,-100.00,North,-999,6.0,13.0,21,-99.99,,,-99.99,,2013-06-18 20:33:00,
2013-06-18 14:43:00,93.0,-99.9,-100.00,North,-999,6.0,13.0,21,-99.99,,,-99.99,,2013-06-18 20:43:00,
2013-06-18 14:53:00,93.0,-99.9,-100.00,North,-999,6.0,13.0,21,-99.99,,,-99.99,,2013-06-18 20:53:00,
2013-06-18 15:00:00,94.0,-99.9,-100.00,North,-999,6.0,14.0,14,-99.99,,,-99.99,,2013-06-18 21:00:00,
2013-06-18 15:33:00,94.0,-99.9,-100.00,North,-999,6.0,14.0,14,-99.99,,,-99.99,,2013-06-18 21:33:00,
2013-06-18 15:43:00,94.0,-99.9,-100.00,North,-999,6.0,14.0,14,-99.99,,,-99.99,,2013-06-18 21:43:00,
2013-06-18 15:53:00,94.0,-99.9,-100.00,North,-999,6.0,14.0,14,-99.99,,,-99.99,,2013-06-18 21:53:00,
2013-06-18 16:00:00,95.0,-99.9,-100.00,North,-999,11.0,20.0,13,-99.99,,,-99.99,,2013-06-18 22:00:00,
2013-06-18 16:34:00,95.0,-99.9,-100.00,North,-999,11.0,20.0,13,-99.99,,,-99.99,,2013-06-18 22:34:00,
2013-06-18 16:43:00,95.0,-99.9,-100.00,North,-999,11.0,20.0,13,-99.99,,,-99.99,,2013-06-18 22:43:00,
2013-06-18 16:53:00,95.0,-99.9,-100.00,North,-999,11.0,20.0,13,-99.99,,,-99.99,,2013-06-18 22:53:00,
2013-06-18 17:40:00,95.0,-99.9,-100.00,North,-999,-999.0,-999.0,-999,-99.99,,,-99.99,,2013-06-18 23:40:00,
2013-06-18 17:50:00,95.0,-99.9,-100.00,North,-999,-999.0,-999.0,-999,-99.99,,,-99.99,,2013-06-18 23:50:00,
2013-06-18 18:00:00,94.0,-99.9,-100.00,North,-999,8.0,18.0,16,-99.99,,,-99.99,,2013-06-19 00:00:00,
2013-06-18 18:02:00,95.0,-99.9,-100.00,North,-999,-999.0,-999.0,-999,-99.99,,,-99.99,,2013-06-19 00:02:00,
2013-06-18 18:33:00,94.0,-99.9,-100.00,North,-999,8.0,18.0,16,-99.99,,,-99.99,,2013-06-19 00:33:00,
2013-06-18 18:43:00,94.0,-99.9,-100.00,North,-999,8.0,18.0,16,-99.99,,,-99.99,,2013-06-19 00:43:00,
2013-06-18 18:53:00,94.0,-99.9,-100.00,North,-999,8.0,18.0,16,-99.99,,,-99.99,,2013-06-19 00:53:00,
2013-06-18 19:00:00,94.0,-99.9,-100.00,North,-999,8.0,14.0,15,-99.99,,,-99.99,,2013-06-19 01:00:00,
2013-06-18 19:32:00,94.0,-99.9,-100.00,North,-999,8.0,14.0,15,-99.99,,,-99.99,,2013-06-19 01:32:00,
2013-06-18 19:43:00,94.0,-99.9,-100.00,North,-999,8.0,14.0,15,-99.99,,,-99.99,,2013-06-19 01:43:00,
2013-06-18 19:53:00,94.0,-99.9,-100.00,North,-999,8.0,14.0,15,-99.99,,,-99.99,,2013-06-19 01:53:00,
2013-06-18 20:00:00,-999.0,-99.9,-100.00,North,-999,8.0,15.0,14,-99.99,,,-99.99,,2013-06-19 02:00:00,
2013-06-18 20:33:00,-999.0,-99.9,-100.00,North,-999,8.0,15.0,14,-99.99,,,-99.99,,2013-06-19 02:33:00,
2013-06-18 20:43:00,-999.0,-99.9,-100.00,North,-999,8.0,15.0,14,-99.99,,,-99.99,,2013-06-19 02:43:00,
2013-06-18 20:52:00,-999.0,-99.9,-100.00,North,-999,8.0,15.0,14,-99.99,,,-99.99,,2013-06-19 02:52:00,
2013-06-18 21:33:00,83.0,-99.9,-100.00,North,-999,-999.0,-999.0,-999,-99.99,,,-99.99,,2013-06-19 03:33:00,
2013-06-18 21:43:00,83.0,-99.9,-100.00,North,-999,-999.0,-999.0,-999,-99.99,,,-99.99,,2013-06-19 03:43:00,
2013-06-18 21:53:00,83.0,-99.9,-100.00,North,-999,-999.0,-999.0,-999,-99.99,,,-99.99,,2013-06-19 03:53:00,
2013-06-18 22:00:00,80.0,-99.9,-100.00,North,-999,2.0,3.0,19,-99.99,,,-99.99,,2013-06-19 04:00:00,
2013-06-18 22:02:00,83.0,-99.9,-100.00,North,-999,-999.0,-999.0,-999,-99.99,,,-99.99,,2013-06-19 04:02:00,
2013-06-18 22:33:00,80.0,-99.9,-100.00,North,-999,2.0,3.0,19,-99.99,,,-99.99,,2013-06-19 04:33:00,
2013-06-18 22:43:00,80.0,-99.9,-100.00,North,-999,2.0,3.0,19,-99.99,,,-99.99,,2013-06-19 04:43:00,
2013-06-18 22:53:00,80.0,-99.9,-100.00,North,-999,2.0,3.0,19,-99.99,,,-99.99,,2013-06-19 04:53:00,
2013-06-18 23:33:00,77.0,-99.9,-100.00,North,-999,2.0,3.0,25,-99.99,,,-99.99,,2013-06-19 05:33:00,